sensor_id;sensor_type;location;lat;lon;timestamp;temperature;humidity
2565;DHT22;1292;48.020;7.822;2023-04-01T05:45:17;9.20;99.90
2565;DHT22;1292;48.020;7.822;2023-04-01T05:47:44;9.20;99.90
2565;DHT22;1292;48.020;7.822;2023-04-01T05:50:11;9.20;99.90
2565;DHT22;1292;48.020;7.822;2023-04-01T05:52:38;9.30;99.90
2565;DHT22;1292;48.020;7.822;2023-04-01T05:55:05;9.30;99.90
2565;DHT22;1292;48.020;7.822;2023-04-01T05:57:32;9.30;99.90
2565;DHT22;1292;48.020;7.822;2023-04-01T05:59:59;9.30;99.90
2565;DHT22;1292;48.020;7.822;2023-04-01T06:02:27;9.40;99.90
2565;DHT22;1292;48.020;7.822;2023-04-01T06:05:01;9.40;99.90
2565;DHT22;1292;48.020;7.822;2023-04-01T06:07:29;9.40;99.90
2565;DHT22;1292;48.020;7.822;2023-04-01T06:09:56;9.50;99.90
2565;DHT22;1292;48.020;7.822;2023-04-01T06:12:44;9.50;99.90
2565;DHT22;1292;48.020;7.822;2023-04-01T06:15:20;9.50;99.90
2565;DHT22;1292;48.020;7.822;2023-04-01T06:21:16;9.60;99.90
2565;DHT22;1292;48.020;7.822;2023-04-01T06:24:00;9.60;99.90
2565;DHT22;1292;48.020;7.822;2023-04-01T06:26:34;9.60;99.90
2565;DHT22;1292;48.020;7.822;2023-04-01T06:29:23;9.60;99.90
2565;DHT22;1292;48.020;7.822;2023-04-01T06:32:14;9.60;99.90
2565;DHT22;1292;48.020;7.822;2023-04-01T06:35:04;9.60;99.90
2565;DHT22;1292;48.020;7.822;2023-04-01T06:40:54;9.60;99.90
2565;DHT22;1292;48.020;7.822;2023-04-01T06:43:34;9.60;99.90
2565;DHT22;1292;48.020;7.822;2023-04-01T06:46:09;9.70;99.90
2565;DHT22;1292;48.020;7.822;2023-04-01T06:48:49;9.70;99.90
2565;DHT22;1292;48.020;7.822;2023-04-01T06:51:26;9.70;99.90
2565;DHT22;1292;48.020;7.822;2023-04-01T06:54:03;9.80;99.90
2565;DHT22;1292;48.020;7.822;2023-04-01T06:56:32;9.80;99.90
2565;DHT22;1292;48.020;7.822;2023-04-01T06:59:02;9.80;99.90
2565;DHT22;1292;48.020;7.822;2023-04-01T07:01:35;9.80;99.90
2565;DHT22;1292;48.020;7.822;2023-04-01T07:04:08;9.90;99.90
2565;DHT22;1292;48.020;7.822;2023-04-01T07:06:41;9.90;99.90
2565;DHT22;1292;48.020;7.822;2023-04-01T07:09:13;9.90;99.90
2565;DHT22;1292;48.020;7.822;2023-04-01T07:11:41;9.90;99.90
2565;DHT22;1292;48.020;7.822;2023-04-01T07:14:13;10.00;99.90
2565;DHT22;1292;48.020;7.822;2023-04-01T07:16:47;10.00;99.90
2565;DHT22;1292;48.020;7.822;2023-04-01T07:19:20;10.10;99.90
2565;DHT22;1292;48.020;7.822;2023-04-01T07:21:52;10.10;99.90
2565;DHT22;1292;48.020;7.822;2023-04-01T07:24:24;10.20;99.90
2565;DHT22;1292;48.020;7.822;2023-04-01T07:26:54;10.20;99.90
2565;DHT22;1292;48.020;7.822;2023-04-01T07:29:21;10.20;99.90
2565;DHT22;1292;48.020;7.822;2023-04-01T07:32:17;10.30;99.90
2565;DHT22;1292;48.020;7.822;2023-04-01T07:34:57;10.30;99.90
2565;DHT22;1292;48.020;7.822;2023-04-01T07:37:31;10.30;99.90
2565;DHT22;1292;48.020;7.822;2023-04-01T07:40:14;10.40;99.90
2565;DHT22;1292;48.020;7.822;2023-04-01T07:43:00;10.30;99.90
2565;DHT22;1292;48.020;7.822;2023-04-01T07:45:32;10.30;99.90
2565;DHT22;1292;48.020;7.822;2023-04-01T07:48:12;10.20;99.90
2565;DHT22;1292;48.020;7.822;2023-04-01T07:50:47;10.30;99.90
2565;DHT22;1292;48.020;7.822;2023-04-01T07:53:22;10.30;99.90
2565;DHT22;1292;48.020;7.822;2023-04-01T07:56:01;10.30;99.90
2565;DHT22;1292;48.020;7.822;2023-04-01T07:58:34;10.30;99.90
2565;DHT22;1292;48.020;7.822;2023-04-01T08:01:06;10.30;99.90
2565;DHT22;1292;48.020;7.822;2023-04-01T08:03:47;10.30;99.90
2565;DHT22;1292;48.020;7.822;2023-04-01T08:06:22;10.30;99.90
2565;DHT22;1292;48.020;7.822;2023-04-01T08:08:59;10.40;99.90
2565;DHT22;1292;48.020;7.822;2023-04-01T08:11:42;10.40;99.90
2565;DHT22;1292;48.020;7.822;2023-04-01T08:14:20;10.40;99.90
2565;DHT22;1292;48.020;7.822;2023-04-01T08:16:56;10.40;99.90
2565;DHT22;1292;48.020;7.822;2023-04-01T08:19:32;10.40;99.90
2565;DHT22;1292;48.020;7.822;2023-04-01T08:22:07;10.40;99.90
2565;DHT22;1292;48.020;7.822;2023-04-01T08:24:41;10.40;99.90
2565;DHT22;1292;48.020;7.822;2023-04-01T08:27:12;10.30;99.90
2565;DHT22;1292;48.020;7.822;2023-04-01T08:29:46;10.40;99.90
2565;DHT22;1292;48.020;7.822;2023-04-01T08:32:17;10.30;99.90
2565;DHT22;1292;48.020;7.822;2023-04-01T08:34:50;10.40;99.90
2565;DHT22;1292;48.020;7.822;2023-04-01T08:37:21;10.40;99.90
2565;DHT22;1292;48.020;7.822;2023-04-01T08:39:54;10.50;99.90
2565;DHT22;1292;48.020;7.822;2023-04-01T08:45:30;10.60;99.90
2565;DHT22;1292;48.020;7.822;2023-04-01T08:48:35;10.50;99.90
2565;DHT22;1292;48.020;7.822;2023-04-01T08:51:25;10.50;99.90
2565;DHT22;1292;48.020;7.822;2023-04-01T08:54:38;10.50;99.90
2565;DHT22;1292;48.020;7.822;2023-04-01T08:57:18;10.60;99.90
2565;DHT22;1292;48.020;7.822;2023-04-01T08:59:59;10.60;99.90
2565;DHT22;1292;48.020;7.822;2023-04-01T09:05:56;10.70;99.90
2565;DHT22;1292;48.020;7.822;2023-04-01T09:08:38;10.80;99.90
2565;DHT22;1292;48.020;7.822;2023-04-01T09:11:12;10.80;99.90
2565;DHT22;1292;48.020;7.822;2023-04-01T09:14:06;10.80;99.90
2565;DHT22;1292;48.020;7.822;2023-04-01T09:16:47;10.80;99.90
2565;DHT22;1292;48.020;7.822;2023-04-01T09:19:20;10.80;99.90
2565;DHT22;1292;48.020;7.822;2023-04-01T09:22:19;10.80;99.90
2565;DHT22;1292;48.020;7.822;2023-04-01T09:25:12;10.80;99.90
2565;DHT22;1292;48.020;7.822;2023-04-01T09:27:45;10.80;99.90
2565;DHT22;1292;48.020;7.822;2023-04-01T09:34:04;10.80;99.90
2565;DHT22;1292;48.020;7.822;2023-04-01T09:36:43;10.80;99.90
2565;DHT22;1292;48.020;7.822;2023-04-01T09:39:34;10.90;99.90
2565;DHT22;1292;48.020;7.822;2023-04-01T09:42:26;10.90;99.90
2565;DHT22;1292;48.020;7.822;2023-04-01T09:44:59;10.90;99.90
2565;DHT22;1292;48.020;7.822;2023-04-01T09:47:40;11.00;99.90
2565;DHT22;1292;48.020;7.822;2023-04-01T09:50:38;11.00;99.90
2565;DHT22;1292;48.020;7.822;2023-04-01T09:53:24;11.00;99.90
2565;DHT22;1292;48.020;7.822;2023-04-01T09:56:26;11.00;99.90
2565;DHT22;1292;48.020;7.822;2023-04-01T10:14:31;11.10;99.90
2565;DHT22;1292;48.020;7.822;2023-04-01T10:17:28;11.20;99.90
2565;DHT22;1292;48.020;7.822;2023-04-01T10:20:20;11.20;99.90
2565;DHT22;1292;48.020;7.822;2023-04-01T10:23:14;11.20;99.90
2565;DHT22;1292;48.020;7.822;2023-04-01T10:25:57;11.20;99.90
2565;DHT22;1292;48.020;7.822;2023-04-01T10:28:49;11.20;99.90
2565;DHT22;1292;48.020;7.822;2023-04-01T10:31:55;11.20;99.90
2565;DHT22;1292;48.020;7.822;2023-04-01T10:38:13;11.20;99.90
2565;DHT22;1292;48.020;7.822;2023-04-01T10:44:13;11.20;99.90
2565;DHT22;1292;48.020;7.822;2023-04-01T10:47:26;11.10;99.90
2565;DHT22;1292;48.020;7.822;2023-04-01T10:50:22;11.20;99.90
2565;DHT22;1292;48.020;7.822;2023-04-01T10:59:07;11.30;99.90
2565;DHT22;1292;48.020;7.822;2023-04-01T11:02:06;11.30;99.90
2565;DHT22;1292;48.020;7.822;2023-04-01T11:05:16;11.30;99.90
2565;DHT22;1292;48.020;7.822;2023-04-01T11:14:37;11.40;99.90
2565;DHT22;1292;48.020;7.822;2023-04-01T11:17:27;11.30;99.90
2565;DHT22;1292;48.020;7.822;2023-04-01T11:23:28;11.30;99.90
2565;DHT22;1292;48.020;7.822;2023-04-01T11:26:08;11.20;99.90
2565;DHT22;1292;48.020;7.822;2023-04-01T11:31:57;11.20;99.90
2565;DHT22;1292;48.020;7.822;2023-04-01T11:34:54;11.20;99.90
2565;DHT22;1292;48.020;7.822;2023-04-01T11:37:30;11.20;99.90
2565;DHT22;1292;48.020;7.822;2023-04-01T11:40:09;11.20;99.90
2565;DHT22;1292;48.020;7.822;2023-04-01T11:42:43;11.20;99.90
2565;DHT22;1292;48.020;7.822;2023-04-01T11:45:23;11.20;99.90
2565;DHT22;1292;48.020;7.822;2023-04-01T11:48:03;11.20;99.90
2565;DHT22;1292;48.020;7.822;2023-04-01T11:50:45;11.20;99.90
2565;DHT22;1292;48.020;7.822;2023-04-01T11:53:23;11.30;99.90
2565;DHT22;1292;48.020;7.822;2023-04-01T11:55:59;11.30;99.90
2565;DHT22;1292;48.020;7.822;2023-04-01T11:58:52;11.40;99.90
2565;DHT22;1292;48.020;7.822;2023-04-01T12:01:29;11.30;99.90
2565;DHT22;1292;48.020;7.822;2023-04-01T12:07:02;11.40;99.90
2565;DHT22;1292;48.020;7.822;2023-04-01T12:09:41;11.40;99.90
2565;DHT22;1292;48.020;7.822;2023-04-01T12:12:15;11.40;99.90
2565;DHT22;1292;48.020;7.822;2023-04-01T12:14:57;11.40;99.90
2565;DHT22;1292;48.020;7.822;2023-04-01T12:17:32;11.40;99.90
2565;DHT22;1292;48.020;7.822;2023-04-01T12:20:33;11.50;99.90
2565;DHT22;1292;48.020;7.822;2023-04-01T12:23:14;11.50;99.90
2565;DHT22;1292;48.020;7.822;2023-04-01T12:26:05;11.50;99.90
2565;DHT22;1292;48.020;7.822;2023-04-01T12:28:44;11.50;99.90
2565;DHT22;1292;48.020;7.822;2023-04-01T12:31:34;11.60;99.90
2565;DHT22;1292;48.020;7.822;2023-04-01T12:34:32;11.50;99.90
2565;DHT22;1292;48.020;7.822;2023-04-01T12:37:10;11.60;99.90
2565;DHT22;1292;48.020;7.822;2023-04-01T12:39:56;11.70;99.90
2565;DHT22;1292;48.020;7.822;2023-04-01T12:42:41;11.60;99.90
2565;DHT22;1292;48.020;7.822;2023-04-01T12:45:32;11.60;99.90
2565;DHT22;1292;48.020;7.822;2023-04-01T12:48:36;11.70;99.90
2565;DHT22;1292;48.020;7.822;2023-04-01T12:51:29;11.70;99.90
2565;DHT22;1292;48.020;7.822;2023-04-01T12:54:24;11.70;99.90
2565;DHT22;1292;48.020;7.822;2023-04-01T12:57:03;11.60;99.90
2565;DHT22;1292;48.020;7.822;2023-04-01T12:59:51;11.70;99.90
2565;DHT22;1292;48.020;7.822;2023-04-01T13:02:30;11.70;99.90
2565;DHT22;1292;48.020;7.822;2023-04-01T13:05:23;11.80;99.90
2565;DHT22;1292;48.020;7.822;2023-04-01T13:08:00;11.80;99.90
2565;DHT22;1292;48.020;7.822;2023-04-01T13:10:51;11.80;99.90
2565;DHT22;1292;48.020;7.822;2023-04-01T13:13:34;11.80;99.90
2565;DHT22;1292;48.020;7.822;2023-04-01T13:16:10;11.80;99.90
2565;DHT22;1292;48.020;7.822;2023-04-01T13:18:45;11.90;99.90
2565;DHT22;1292;48.020;7.822;2023-04-01T13:21:22;11.90;99.90
2565;DHT22;1292;48.020;7.822;2023-04-01T13:23:56;12.00;99.90
2565;DHT22;1292;48.020;7.822;2023-04-01T13:26:31;12.00;99.90
2565;DHT22;1292;48.020;7.822;2023-04-01T13:29:11;12.00;99.90
2565;DHT22;1292;48.020;7.822;2023-04-01T13:31:47;12.00;99.90
2565;DHT22;1292;48.020;7.822;2023-04-01T13:34:27;12.10;99.90
2565;DHT22;1292;48.020;7.822;2023-04-01T13:37:05;12.10;99.90
2565;DHT22;1292;48.020;7.822;2023-04-01T13:39:56;12.10;99.90
2565;DHT22;1292;48.020;7.822;2023-04-01T13:42:28;12.10;99.90
2565;DHT22;1292;48.020;7.822;2023-04-01T13:45:01;12.20;99.90
2565;DHT22;1292;48.020;7.822;2023-04-01T13:50:46;12.20;99.90
2565;DHT22;1292;48.020;7.822;2023-04-01T13:53:42;12.30;99.90
2565;DHT22;1292;48.020;7.822;2023-04-01T13:56:26;12.30;99.90
2565;DHT22;1292;48.020;7.822;2023-04-01T14:01:49;12.60;99.90
2565;DHT22;1292;48.020;7.822;2023-04-01T14:04:39;12.60;99.90
2565;DHT22;1292;48.020;7.822;2023-04-01T14:07:16;12.60;99.90
2565;DHT22;1292;48.020;7.822;2023-04-01T14:09:54;12.70;99.90
2565;DHT22;1292;48.020;7.822;2023-04-01T14:12:30;12.70;99.90
2565;DHT22;1292;48.020;7.822;2023-04-01T14:15:14;12.90;99.90
2565;DHT22;1292;48.020;7.822;2023-04-01T14:18:00;13.10;99.90
2565;DHT22;1292;48.020;7.822;2023-04-01T14:20:38;13.20;99.90
2565;DHT22;1292;48.020;7.822;2023-04-01T14:23:27;13.30;99.90
2565;DHT22;1292;48.020;7.822;2023-04-01T14:26:12;13.30;99.90
2565;DHT22;1292;48.020;7.822;2023-04-01T14:28:49;13.30;99.90
2565;DHT22;1292;48.020;7.822;2023-04-01T14:31:27;13.30;99.90
2565;DHT22;1292;48.020;7.822;2023-04-01T14:34:09;13.30;99.90
2565;DHT22;1292;48.020;7.822;2023-04-01T14:36:47;13.10;99.90
2565;DHT22;1292;48.020;7.822;2023-04-01T14:39:39;12.90;99.90
2565;DHT22;1292;48.020;7.822;2023-04-01T14:42:23;12.70;99.90
2565;DHT22;1292;48.020;7.822;2023-04-01T14:45:18;12.70;99.90
2565;DHT22;1292;48.020;7.822;2023-04-01T14:47:50;12.70;99.90
2565;DHT22;1292;48.020;7.822;2023-04-01T14:50:23;12.70;99.90
2565;DHT22;1292;48.020;7.822;2023-04-01T14:52:59;12.70;99.90
2565;DHT22;1292;48.020;7.822;2023-04-01T14:55:48;12.80;99.90
2565;DHT22;1292;48.020;7.822;2023-04-01T14:58:17;12.90;99.90
2565;DHT22;1292;48.020;7.822;2023-04-01T15:01:00;13.00;99.90
2565;DHT22;1292;48.020;7.822;2023-04-01T15:03:38;13.10;99.90
2565;DHT22;1292;48.020;7.822;2023-04-01T15:06:35;13.00;99.90
2565;DHT22;1292;48.020;7.822;2023-04-01T15:09:15;12.90;99.90
2565;DHT22;1292;48.020;7.822;2023-04-01T15:11:59;12.80;99.90
2565;DHT22;1292;48.020;7.822;2023-04-01T15:14:46;12.80;99.90
2565;DHT22;1292;48.020;7.822;2023-04-01T15:17:35;12.80;99.90
2565;DHT22;1292;48.020;7.822;2023-04-01T15:20:21;12.70;99.90
2565;DHT22;1292;48.020;7.822;2023-04-01T15:23:12;12.60;99.90
2565;DHT22;1292;48.020;7.822;2023-04-01T15:25:55;12.60;99.90
2565;DHT22;1292;48.020;7.822;2023-04-01T15:28:32;12.60;99.90
2565;DHT22;1292;48.020;7.822;2023-04-01T15:31:07;12.60;99.90
2565;DHT22;1292;48.020;7.822;2023-04-01T15:33:47;12.60;99.90
2565;DHT22;1292;48.020;7.822;2023-04-01T15:36:28;12.60;99.90
2565;DHT22;1292;48.020;7.822;2023-04-01T15:39:03;12.50;99.90
2565;DHT22;1292;48.020;7.822;2023-04-01T15:41:40;12.40;99.90
2565;DHT22;1292;48.020;7.822;2023-04-01T15:44:33;12.40;99.90
2565;DHT22;1292;48.020;7.822;2023-04-01T15:47:25;12.40;99.90
2565;DHT22;1292;48.020;7.822;2023-04-01T15:49:57;12.30;99.90
2565;DHT22;1292;48.020;7.822;2023-04-01T15:52:37;12.20;99.90
2565;DHT22;1292;48.020;7.822;2023-04-01T15:55:19;12.00;99.90
2565;DHT22;1292;48.020;7.822;2023-04-01T15:57:59;12.00;99.90
2565;DHT22;1292;48.020;7.822;2023-04-01T16:00:29;12.00;99.90
2565;DHT22;1292;48.020;7.822;2023-04-01T16:03:19;11.80;99.90
2565;DHT22;1292;48.020;7.822;2023-04-01T16:06:02;11.90;99.90
2565;DHT22;1292;48.020;7.822;2023-04-01T16:09:02;11.90;99.90
2565;DHT22;1292;48.020;7.822;2023-04-01T16:11:42;11.80;99.90
2565;DHT22;1292;48.020;7.822;2023-04-01T16:14:23;11.90;99.90
2565;DHT22;1292;48.020;7.822;2023-04-01T16:17:05;11.90;99.90
2565;DHT22;1292;48.020;7.822;2023-04-01T16:19:45;11.90;99.90
2565;DHT22;1292;48.020;7.822;2023-04-01T16:22:21;12.00;99.90
2565;DHT22;1292;48.020;7.822;2023-04-01T16:24:54;12.00;99.90
2565;DHT22;1292;48.020;7.822;2023-04-01T16:27:29;12.00;99.90
2565;DHT22;1292;48.020;7.822;2023-04-01T16:30:03;12.10;99.90
2565;DHT22;1292;48.020;7.822;2023-04-01T16:32:49;12.20;99.90
2565;DHT22;1292;48.020;7.822;2023-04-01T16:35:29;12.30;99.90
2565;DHT22;1292;48.020;7.822;2023-04-01T16:38:03;12.40;99.90
2565;DHT22;1292;48.020;7.822;2023-04-01T16:40:40;12.40;99.90
2565;DHT22;1292;48.020;7.822;2023-04-01T16:43:19;12.50;99.90
2565;DHT22;1292;48.020;7.822;2023-04-01T16:46:07;12.50;99.90
2565;DHT22;1292;48.020;7.822;2023-04-01T16:48:52;12.60;99.90
2565;DHT22;1292;48.020;7.822;2023-04-01T16:51:24;12.50;99.90
2565;DHT22;1292;48.020;7.822;2023-04-01T16:54:02;12.60;99.90
2565;DHT22;1292;48.020;7.822;2023-04-01T16:56:39;12.60;99.90
2565;DHT22;1292;48.020;7.822;2023-04-01T16:59:14;12.60;99.90
2565;DHT22;1292;48.020;7.822;2023-04-01T17:01:47;12.60;99.90
2565;DHT22;1292;48.020;7.822;2023-04-01T17:04:23;12.50;99.90
2565;DHT22;1292;48.020;7.822;2023-04-01T17:06:55;12.50;99.90
2565;DHT22;1292;48.020;7.822;2023-04-01T17:09:42;12.50;99.90
2565;DHT22;1292;48.020;7.822;2023-04-01T17:12:16;12.50;99.90
2565;DHT22;1292;48.020;7.822;2023-04-01T17:14:52;12.50;99.90
2565;DHT22;1292;48.020;7.822;2023-04-01T17:17:33;12.50;99.90
2565;DHT22;1292;48.020;7.822;2023-04-01T17:20:18;12.50;99.90
2565;DHT22;1292;48.020;7.822;2023-04-01T17:22:53;12.40;99.90
2565;DHT22;1292;48.020;7.822;2023-04-01T17:25:32;12.40;99.90
2565;DHT22;1292;48.020;7.822;2023-04-01T17:28:08;12.40;99.90
2565;DHT22;1292;48.020;7.822;2023-04-01T17:30:42;12.30;99.90
2565;DHT22;1292;48.020;7.822;2023-04-01T17:33:38;12.30;99.90
2565;DHT22;1292;48.020;7.822;2023-04-01T17:36:16;12.30;99.90
2565;DHT22;1292;48.020;7.822;2023-04-01T17:39:01;12.20;99.90
2565;DHT22;1292;48.020;7.822;2023-04-01T17:41:40;12.20;99.90
2565;DHT22;1292;48.020;7.822;2023-04-01T17:44:20;12.10;99.90
2565;DHT22;1292;48.020;7.822;2023-04-01T17:47:11;12.10;99.90
2565;DHT22;1292;48.020;7.822;2023-04-01T17:49:44;12.00;99.90
2565;DHT22;1292;48.020;7.822;2023-04-01T17:52:19;11.90;99.90
2565;DHT22;1292;48.020;7.822;2023-04-01T17:54:55;11.90;99.90
2565;DHT22;1292;48.020;7.822;2023-04-01T17:57:45;11.80;99.90
2565;DHT22;1292;48.020;7.822;2023-04-01T18:00:22;11.70;99.90
2565;DHT22;1292;48.020;7.822;2023-04-01T18:03:00;11.70;99.90
2565;DHT22;1292;48.020;7.822;2023-04-01T18:05:57;11.60;99.90
2565;DHT22;1292;48.020;7.822;2023-04-01T18:08:49;11.50;99.90
2565;DHT22;1292;48.020;7.822;2023-04-01T18:11:30;11.50;99.90
2565;DHT22;1292;48.020;7.822;2023-04-01T18:17:23;11.30;99.90
2565;DHT22;1292;48.020;7.822;2023-04-01T18:20:24;11.30;99.90
2565;DHT22;1292;48.020;7.822;2023-04-01T18:22:56;11.20;99.90
2565;DHT22;1292;48.020;7.822;2023-04-01T18:25:29;11.10;99.90
2565;DHT22;1292;48.020;7.822;2023-04-01T18:28:14;11.10;99.90
2565;DHT22;1292;48.020;7.822;2023-04-01T18:30:44;11.10;99.90
2565;DHT22;1292;48.020;7.822;2023-04-01T18:33:21;11.10;99.90
2565;DHT22;1292;48.020;7.822;2023-04-01T18:35:53;11.00;99.90
2565;DHT22;1292;48.020;7.822;2023-04-01T18:38:27;11.00;99.90
2565;DHT22;1292;48.020;7.822;2023-04-01T18:41:12;11.00;99.90
2565;DHT22;1292;48.020;7.822;2023-04-01T18:43:45;11.00;99.90
2565;DHT22;1292;48.020;7.822;2023-04-01T18:46:19;11.00;99.90
2565;DHT22;1292;48.020;7.822;2023-04-01T18:48:51;10.90;99.90
2565;DHT22;1292;48.020;7.822;2023-04-01T18:51:25;10.90;99.90
2565;DHT22;1292;48.020;7.822;2023-04-01T18:53:56;10.90;99.90
2565;DHT22;1292;48.020;7.822;2023-04-01T18:56:27;10.90;99.90
2565;DHT22;1292;48.020;7.822;2023-04-01T18:59:01;10.80;99.90
2565;DHT22;1292;48.020;7.822;2023-04-01T19:01:36;10.80;99.90
2565;DHT22;1292;48.020;7.822;2023-04-01T19:04:14;10.80;99.90
2565;DHT22;1292;48.020;7.822;2023-04-01T19:06:47;10.70;99.90
2565;DHT22;1292;48.020;7.822;2023-04-01T19:09:20;10.70;99.90
2565;DHT22;1292;48.020;7.822;2023-04-01T19:14:47;10.70;99.90
2565;DHT22;1292;48.020;7.822;2023-04-01T19:17:26;10.60;99.90
2565;DHT22;1292;48.020;7.822;2023-04-01T19:20:04;10.60;99.90
2565;DHT22;1292;48.020;7.822;2023-04-01T19:22:47;10.50;99.90
2565;DHT22;1292;48.020;7.822;2023-04-01T19:25:25;10.50;99.90
2565;DHT22;1292;48.020;7.822;2023-04-01T19:27:58;10.50;99.90
2565;DHT22;1292;48.020;7.822;2023-04-01T19:30:42;10.50;99.90
2565;DHT22;1292;48.020;7.822;2023-04-01T19:33:23;10.50;99.90
2565;DHT22;1292;48.020;7.822;2023-04-01T19:35:59;10.40;99.90
2565;DHT22;1292;48.020;7.822;2023-04-01T19:38:31;10.40;99.90
2565;DHT22;1292;48.020;7.822;2023-04-01T19:41:08;10.40;99.90
2565;DHT22;1292;48.020;7.822;2023-04-01T19:43:54;10.40;99.90
2565;DHT22;1292;48.020;7.822;2023-04-01T19:46:29;10.40;99.90
2565;DHT22;1292;48.020;7.822;2023-04-01T19:49:23;10.40;99.90
2565;DHT22;1292;48.020;7.822;2023-04-01T19:51:52;10.40;99.90
2565;DHT22;1292;48.020;7.822;2023-04-01T19:54:31;10.40;99.90
2565;DHT22;1292;48.020;7.822;2023-04-01T19:57:09;10.40;99.90
2565;DHT22;1292;48.020;7.822;2023-04-01T19:59:42;10.40;99.90
2565;DHT22;1292;48.020;7.822;2023-04-01T20:02:29;10.30;99.90
2565;DHT22;1292;48.020;7.822;2023-04-01T20:04:59;10.30;99.90
2565;DHT22;1292;48.020;7.822;2023-04-01T20:07:32;10.20;99.90
2565;DHT22;1292;48.020;7.822;2023-04-01T20:10:09;10.20;99.90
2565;DHT22;1292;48.020;7.822;2023-04-01T20:12:45;10.20;99.90
2565;DHT22;1292;48.020;7.822;2023-04-01T20:15:22;10.20;99.90
2565;DHT22;1292;48.020;7.822;2023-04-01T20:17:52;10.20;99.90
2565;DHT22;1292;48.020;7.822;2023-04-01T20:20:22;10.10;99.90
2565;DHT22;1292;48.020;7.822;2023-04-01T20:23:24;10.10;99.90
2565;DHT22;1292;48.020;7.822;2023-04-01T20:25:57;10.10;99.90
2565;DHT22;1292;48.020;7.822;2023-04-01T20:28:32;10.10;99.90
2565;DHT22;1292;48.020;7.822;2023-04-01T20:31:18;10.10;99.90
2565;DHT22;1292;48.020;7.822;2023-04-01T20:34:17;10.10;99.90
2565;DHT22;1292;48.020;7.822;2023-04-01T20:37:09;10.10;99.90
2565;DHT22;1292;48.020;7.822;2023-04-01T20:40:20;10.10;99.90
2565;DHT22;1292;48.020;7.822;2023-04-01T20:43:05;10.20;99.90
2565;DHT22;1292;48.020;7.822;2023-04-01T20:45:37;10.30;99.90
2565;DHT22;1292;48.020;7.822;2023-04-01T20:48:30;10.30;99.90
2565;DHT22;1292;48.020;7.822;2023-04-01T20:50:59;10.40;99.90
2565;DHT22;1292;48.020;7.822;2023-04-01T20:53:35;10.30;99.90
2565;DHT22;1292;48.020;7.822;2023-04-01T20:56:29;10.30;99.90
2565;DHT22;1292;48.020;7.822;2023-04-01T20:59:09;10.30;99.90
